Time;durP1;ratioP1;P1;durP2;ratioP2;P2;SDS_P1;SDS_P2;PMS_P1;PMS_P2;Temp;Humidity;BMP_temperature;BMP_pressure;BME280_temperature;BME280_humidity;BME280_pressure;Samples;Min_cycle;Max_cycle;Signal;HPM_P1;HPM_P2
2023/04/04 00:00:18;;;;;;;6.60;1.60;;;;;;;;;;5039783;28;20454;-71
2023/04/04 00:02:45;;;;;;;4.53;1.20;;;;;;;;;;5037723;28;20458;-72
2023/04/04 00:05:13;;;;;;;3.07;1.23;;;;;;;;;;5044859;28;20481;-71
2023/04/04 00:07:43;;;;;;;3.33;1.20;;;;;;;;;;5048188;28;20929;-70
2023/04/04 00:10:17;;;;;;;4.03;1.80;;;;;;;;;;5048976;28;20446;-71
2023/04/04 00:12:44;;;;;;;8.20;1.30;;;;;;;;;;5046115;28;20454;-70
2023/04/04 00:15:21;;;;;;;3.80;1.00;;;;;;;;;;5048978;28;20855;-71
2023/04/04 00:17:51;;;;;;;6.23;1.07;;;;;;;;;;5045877;28;20826;-71
2023/04/04 00:20:19;;;;;;;9.27;1.50;;;;;;;;;;5047457;28;20534;-72
2023/04/04 00:22:46;;;;;;;4.40;1.40;;;;;;;;;;5046826;28;20489;-72
2023/04/04 00:25:14;;;;;;;4.17;1.07;;;;;;;;;;5048284;28;20824;-72
2023/04/04 00:27:42;;;;;;;3.70;1.30;;;;;;;;;;5048844;28;20446;-72
2023/04/04 00:30:19;;;;;;;3.83;1.40;;;;;;;;;;5044815;28;20518;-72
2023/04/04 00:32:48;;;;;;;7.83;1.40;;;;;;;;;;5048355;28;20570;-71
2023/04/04 00:35:17;;;;;;;5.20;1.27;;;;;;;;;;5047514;28;20450;-72
2023/04/04 00:37:45;;;;;;;5.77;1.57;;;;;;;;;;5049553;28;20556;-72
2023/04/04 00:40:17;;;;;;;4.10;1.70;;;;;;;;;;5045773;28;20527;-72
2023/04/04 00:42:45;;;;;;;9.07;1.60;;;;;;;;;;5049291;28;20501;-72
2023/04/04 00:45:12;;;;;;;5.87;2.00;;;;;;;;;;5042803;28;20909;-71
2023/04/04 00:47:40;;;;;;;3.27;0.97;;;;;;;;;;5050215;28;20793;-72
2023/04/04 00:50:13;;;;;;;7.43;1.53;;;;;;;;;;5041884;28;20470;-72
2023/04/04 00:52:42;;;;;;;4.17;1.40;;;;;;;;;;5040279;28;20520;-72
2023/04/04 00:55:09;;;;;;;4.30;1.27;;;;;;;;;;5036145;28;20975;-71
2023/04/04 00:57:37;;;;;;;3.13;1.10;;;;;;;;;;5036668;28;20447;-72
2023/04/04 01:00:24;;;;;;;5.53;1.40;;;;;;;;;;5036738;28;20469;-72
2023/04/04 01:02:51;;;;;;;4.33;1.70;;;;;;;;;;5052889;28;20457;-71
2023/04/04 01:05:19;;;;;;;5.57;1.30;;;;;;;;;;5058642;28;20501;-71
2023/04/04 01:07:47;;;;;;;3.90;1.80;;;;;;;;;;5056502;28;20560;-72
2023/04/04 01:10:15;;;;;;;5.53;1.50;;;;;;;;;;5038254;28;20737;-73
2023/04/04 01:12:42;;;;;;;4.77;1.77;;;;;;;;;;5038196;28;20537;-72
2023/04/04 01:15:10;;;;;;;4.67;1.57;;;;;;;;;;5056078;28;20460;-71
2023/04/04 01:17:37;;;;;;;4.57;1.87;;;;;;;;;;5055933;28;20544;-71
2023/04/04 01:20:06;;;;;;;2.93;1.20;;;;;;;;;;5056402;28;21058;-72
2023/04/04 01:22:34;;;;;;;4.40;1.37;;;;;;;;;;5039591;28;20730;-72
2023/04/04 01:25:02;;;;;;;4.90;1.53;;;;;;;;;;5036462;28;20521;-71
2023/04/04 01:27:31;;;;;;;5.30;1.53;;;;;;;;;;5035740;28;20455;-71
2023/04/04 01:29:58;;;;;;;4.10;2.00;;;;;;;;;;5037305;28;20796;-71
2023/04/04 01:32:30;;;;;;;6.73;2.00;;;;;;;;;;5038269;28;20459;-71
2023/04/04 01:35:02;;;;;;;4.90;1.90;;;;;;;;;;5038719;28;20513;-71
2023/04/04 01:37:33;;;;;;;4.80;1.70;;;;;;;;;;5037727;28;20801;-71
2023/04/04 01:40:07;;;;;;;6.27;1.53;;;;;;;;;;5038010;28;20753;-71
2023/04/04 01:42:39;;;;;;;4.27;1.70;;;;;;;;;;5036970;28;20451;-71
2023/04/04 01:45:17;;;;;;;4.80;2.00;;;;;;;;;;5036764;28;20487;-72
2023/04/04 01:47:55;;;;;;;5.50;2.90;;;;;;;;;;5020296;28;20486;-72
2023/04/04 01:50:26;;;;;;;5.70;1.57;;;;;;;;;;5036902;28;20466;-71
2023/04/04 01:52:53;;;;;;;7.13;1.90;;;;;;;;;;5037725;28;20754;-71
2023/04/04 01:55:21;;;;;;;4.50;1.57;;;;;;;;;;5036675;28;20451;-72
2023/04/04 01:57:50;;;;;;;3.13;1.17;;;;;;;;;;5021114;28;20451;-72
2023/04/04 02:00:17;;;;;;;4.67;1.50;;;;;;;;;;5036958;28;20467;-71
2023/04/04 02:02:44;;;;;;;5.70;1.47;;;;;;;;;;5038530;28;20462;-71
2023/04/04 02:05:12;;;;;;;7.60;2.40;;;;;;;;;;5039977;28;20552;-72
2023/04/04 02:07:40;;;;;;;5.60;1.60;;;;;;;;;;5040956;28;20752;-71
2023/04/04 02:10:15;;;;;;;4.40;1.73;;;;;;;;;;5028048;28;20482;-71
2023/04/04 02:12:44;;;;;;;6.47;2.03;;;;;;;;;;5021439;28;20708;-71
2023/04/04 02:15:16;;;;;;;5.33;1.67;;;;;;;;;;5041467;28;20959;-72
2023/04/04 02:17:48;;;;;;;5.87;1.90;;;;;;;;;;5041953;28;20467;-71
2023/04/04 02:20:18;;;;;;;7.13;1.43;;;;;;;;;;5041336;28;20465;-76
2023/04/04 02:22:54;;;;;;;3.50;1.90;;;;;;;;;;5045837;28;20490;-71
2023/04/04 02:25:26;;;;;;;4.23;1.70;;;;;;;;;;5042273;28;20748;-71
2023/04/04 02:27:54;;;;;;;3.70;1.90;;;;;;;;;;5061073;28;20468;-71
2023/04/04 02:30:24;;;;;;;12.20;1.60;;;;;;;;;;5061747;28;20461;-71
2023/04/04 02:32:54;;;;;;;3.00;1.43;;;;;;;;;;5057022;28;20477;-71
2023/04/04 02:35:38;;;;;;;4.17;1.70;;;;;;;;;;5053423;28;20487;-70
2023/04/04 02:38:07;;;;;;;3.53;1.80;;;;;;;;;;5059010;28;20549;-71
2023/04/04 02:40:38;;;;;;;5.73;2.07;;;;;;;;;;5051146;28;20521;-71
2023/04/04 02:43:05;;;;;;;3.60;1.83;;;;;;;;;;5041201;28;20538;-72
2023/04/04 02:45:34;;;;;;;8.50;3.00;;;;;;;;;;5039377;28;21063;-72
2023/04/04 02:48:02;;;;;;;3.10;1.37;;;;;;;;;;5040663;28;20530;-71
2023/04/04 02:50:34;;;;;;;3.07;1.83;;;;;;;;;;5053751;28;20509;-70
2023/04/04 02:53:06;;;;;;;4.00;1.87;;;;;;;;;;5056616;28;20814;-71
2023/04/04 02:55:34;;;;;;;3.50;1.57;;;;;;;;;;5046403;28;20454;-71
2023/04/04 02:58:01;;;;;;;4.40;2.07;;;;;;;;;;5022462;28;20810;-70
2023/04/04 03:00:29;;;;;;;3.80;2.13;;;;;;;;;;5040570;28;20471;-72
2023/04/04 03:02:58;;;;;;;3.93;1.60;;;;;;;;;;5039514;28;20451;-72
2023/04/04 03:05:25;;;;;;;3.73;2.27;;;;;;;;;;5051098;28;20827;-72
2023/04/04 03:07:55;;;;;;;6.40;2.10;;;;;;;;;;5042069;28;20466;-71
2023/04/04 03:10:22;;;;;;;4.10;2.40;;;;;;;;;;5060371;28;20941;-71
2023/04/04 03:12:50;;;;;;;3.70;1.77;;;;;;;;;;5058328;28;20497;-71
2023/04/04 03:15:22;;;;;;;3.80;1.60;;;;;;;;;;5043036;28;20443;-71
2023/04/04 03:17:50;;;;;;;5.13;1.67;;;;;;;;;;5039414;28;20490;-71
2023/04/04 03:20:19;;;;;;;3.53;1.50;;;;;;;;;;5053927;28;20458;-73
2023/04/04 03:23:16;;;;;;;4.03;1.70;;;;;;;;;;5040508;28;20575;-71
2023/04/04 03:25:49;;;;;;;6.80;1.93;;;;;;;;;;5037283;28;20509;-71
2023/04/04 03:28:16;;;;;;;4.03;1.70;;;;;;;;;;5037362;28;20977;-71
2023/04/04 03:30:44;;;;;;;4.50;2.50;;;;;;;;;;5038179;28;20455;-72
2023/04/04 03:33:15;;;;;;;4.00;2.00;;;;;;;;;;5036033;28;20461;-72
2023/04/04 03:35:44;;;;;;;5.83;2.57;;;;;;;;;;5037168;28;20538;-70
2023/04/04 03:38:12;;;;;;;3.73;2.30;;;;;;;;;;5037767;28;20558;-71
2023/04/04 03:40:40;;;;;;;4.30;1.87;;;;;;;;;;5031569;28;20459;-71
2023/04/04 03:43:08;;;;;;;6.30;3.13;;;;;;;;;;5019318;28;20456;-71
2023/04/04 03:45:35;;;;;;;6.50;2.10;;;;;;;;;;5021217;28;20490;-71
2023/04/04 03:48:03;;;;;;;4.33;2.30;;;;;;;;;;5036932;28;20451;-71
2023/04/04 03:50:37;;;;;;;3.60;2.37;;;;;;;;;;5037654;28;20467;-71
2023/04/04 03:53:06;;;;;;;4.77;2.10;;;;;;;;;;5037689;28;20454;-71
2023/04/04 03:55:54;;;;;;;5.37;2.37;;;;;;;;;;5038226;28;20454;-71
2023/04/04 03:58:27;;;;;;;4.03;1.60;;;;;;;;;;5037321;28;20478;-72
2023/04/04 04:00:56;;;;;;;5.60;2.40;;;;;;;;;;5033254;28;20491;-71
2023/04/04 04:03:24;;;;;;;5.87;1.87;;;;;;;;;;5035912;28;20495;-71
2023/04/04 04:06:12;;;;;;;3.53;1.80;;;;;;;;;;5036224;28;20489;-71
2023/04/04 04:08:45;;;;;;;4.83;1.80;;;;;;;;;;5035451;28;20516;-71
2023/04/04 04:11:18;;;;;;;4.57;1.90;;;;;;;;;;5035744;28;20493;-70
2023/04/04 04:13:45;;;;;;;5.10;2.27;;;;;;;;;;5030809;28;20455;-70
2023/04/04 04:16:13;;;;;;;5.53;2.40;;;;;;;;;;5035200;28;20965;-70
2023/04/04 04:18:41;;;;;;;8.57;2.10;;;;;;;;;;5037419;28;20557;-71
2023/04/04 04:21:12;;;;;;;4.83;1.90;;;;;;;;;;5030065;28;20462;-71
2023/04/04 04:23:43;;;;;;;5.47;2.63;;;;;;;;;;5036532;28;20507;-72
2023/04/04 04:26:11;;;;;;;4.27;1.67;;;;;;;;;;5035864;28;20486;-71
2023/04/04 04:28:39;;;;;;;4.13;1.70;;;;;;;;;;5034768;28;20469;-72
2023/04/04 04:31:07;;;;;;;3.20;2.20;;;;;;;;;;5027305;28;20452;-71
2023/04/04 04:33:35;;;;;;;3.40;2.20;;;;;;;;;;5031112;28;20455;-70
2023/04/04 04:36:08;;;;;;;5.40;2.10;;;;;;;;;;5036069;28;20862;-71
2023/04/04 04:38:37;;;;;;;8.00;2.30;;;;;;;;;;5037211;28;20501;-71
2023/04/04 04:41:07;;;;;;;5.33;2.00;;;;;;;;;;5036506;28;20458;-70
2023/04/04 04:43:35;;;;;;;4.10;1.57;;;;;;;;;;5037505;28;20554;-71
2023/04/04 04:46:07;;;;;;;5.07;1.97;;;;;;;;;;5036982;28;20490;-70
2023/04/04 04:48:36;;;;;;;4.73;1.97;;;;;;;;;;5036596;28;21023;-71
2023/04/04 04:51:04;;;;;;;4.97;2.90;;;;;;;;;;5037181;28;20554;-70
2023/04/04 04:53:35;;;;;;;4.10;2.40;;;;;;;;;;5031758;28;20792;-71
2023/04/04 04:56:13;;;;;;;7.73;4.30;;;;;;;;;;5028509;28;20755;-72
2023/04/04 04:58:55;;;;;;;4.13;2.13;;;;;;;;;;5015736;28;20432;-71
2023/04/04 05:01:37;;;;;;;8.97;2.70;;;;;;;;;;5016062;28;20474;-71
2023/04/04 05:04:07;;;;;;;6.00;2.07;;;;;;;;;;5015419;28;20794;-71
2023/04/04 05:06:35;;;;;;;4.43;2.17;;;;;;;;;;5015422;28;20989;-71
2023/04/04 05:09:04;;;;;;;5.77;2.10;;;;;;;;;;5014917;28;20451;-71
2023/04/04 05:11:33;;;;;;;13.03;2.40;;;;;;;;;;5032389;28;20489;-71
2023/04/04 05:14:05;;;;;;;7.60;2.37;;;;;;;;;;5033850;28;20463;-70
2023/04/04 05:16:34;;;;;;;3.67;2.10;;;;;;;;;;5036356;28;20454;-72
2023/04/04 05:19:03;;;;;;;5.13;2.23;;;;;;;;;;5034566;28;20464;-71
2023/04/04 05:21:30;;;;;;;3.40;1.60;;;;;;;;;;5028170;28;20463;-70
2023/04/04 05:24:00;;;;;;;3.53;2.30;;;;;;;;;;5046650;28;20527;-72
2023/04/04 05:26:30;;;;;;;6.70;2.37;;;;;;;;;;5057156;28;20486;-72
2023/04/04 05:29:03;;;;;;;7.40;2.63;;;;;;;;;;5055654;28;20551;-71
2023/04/04 05:31:31;;;;;;;4.80;2.60;;;;;;;;;;5055218;28;20465;-71
2023/04/04 05:34:07;;;;;;;4.33;2.00;;;;;;;;;;5053064;28;20461;-71
2023/04/04 05:36:38;;;;;;;3.90;2.27;;;;;;;;;;5052612;28;20462;-70
2023/04/04 05:39:05;;;;;;;6.13;2.17;;;;;;;;;;5055527;28;20458;-70
2023/04/04 05:41:36;;;;;;;7.43;2.87;;;;;;;;;;5055499;28;20530;-70
2023/04/04 05:44:06;;;;;;;4.57;2.50;;;;;;;;;;5056130;28;20935;-72
2023/04/04 05:46:33;;;;;;;5.00;2.10;;;;;;;;;;5052069;28;20539;-70
2023/04/04 05:49:00;;;;;;;5.47;2.80;;;;;;;;;;5050506;28;20851;-70
2023/04/04 05:51:29;;;;;;;6.63;2.50;;;;;;;;;;5044034;28;20550;-71
2023/04/04 05:54:09;;;;;;;4.43;2.70;;;;;;;;;;5051006;28;20530;-70
2023/04/04 05:56:43;;;;;;;4.37;2.30;;;;;;;;;;5053933;28;20507;-71
2023/04/04 06:02:45;;;;;;;3.53;2.07;;;;;;;;;;5031622;28;20469;-72
2023/04/04 06:05:15;;;;;;;11.47;2.60;;;;;;;;;;5055638;28;20457;-70
2023/04/04 06:07:50;;;;;;;5.00;2.30;;;;;;;;;;5056587;28;20699;-72
2023/04/04 06:10:20;;;;;;;5.77;2.23;;;;;;;;;;5046001;28;20538;-71
2023/04/04 06:12:48;;;;;;;6.97;2.73;;;;;;;;;;5038715;28;20589;-71
2023/04/04 06:15:17;;;;;;;7.40;2.47;;;;;;;;;;5037750;28;20462;-71
2023/04/04 06:17:49;;;;;;;6.70;2.70;;;;;;;;;;5036337;28;20931;-71
2023/04/04 06:20:22;;;;;;;7.13;2.37;;;;;;;;;;5035760;28;20568;-70
2023/04/04 06:22:50;;;;;;;5.57;1.83;;;;;;;;;;5040462;28;20462;-71
2023/04/04 06:25:18;;;;;;;5.90;2.37;;;;;;;;;;5045532;28;20462;-71
2023/04/04 06:27:46;;;;;;;3.60;2.10;;;;;;;;;;5040085;28;20431;-71
2023/04/04 06:30:17;;;;;;;4.77;2.10;;;;;;;;;;5048023;28;20446;-71
2023/04/04 06:32:46;;;;;;;9.70;3.40;;;;;;;;;;5046814;28;20500;-68
2023/04/04 06:35:14;;;;;;;9.53;2.37;;;;;;;;;;5048708;28;20458;-69
2023/04/04 06:37:42;;;;;;;7.30;2.80;;;;;;;;;;5049478;28;20490;-71
2023/04/04 06:40:16;;;;;;;5.17;3.60;;;;;;;;;;5051141;28;20442;-71
2023/04/04 06:42:58;;;;;;;8.63;3.23;;;;;;;;;;5053534;28;20448;-71
2023/04/04 06:45:32;;;;;;;6.77;2.57;;;;;;;;;;5050284;28;20474;-70
2023/04/04 06:48:02;;;;;;;5.70;2.10;;;;;;;;;;5053428;28;20449;-73
2023/04/04 06:50:35;;;;;;;4.50;2.80;;;;;;;;;;5053197;28;20460;-71
2023/04/04 06:53:03;;;;;;;7.20;3.10;;;;;;;;;;5050771;28;20777;-69
2023/04/04 06:55:30;;;;;;;4.43;2.40;;;;;;;;;;5050979;28;20434;-70
2023/04/04 06:58:04;;;;;;;31.73;21.27;;;;;;;;;;5051672;28;20543;-69
2023/04/04 07:00:36;;;;;;;6.93;3.13;;;;;;;;;;5052711;28;20449;-70
2023/04/04 07:03:05;;;;;;;4.77;2.40;;;;;;;;;;5050687;28;20477;-70
2023/04/04 07:05:32;;;;;;;5.50;2.47;;;;;;;;;;5049717;28;21059;-70
2023/04/04 07:08:00;;;;;;;6.30;2.53;;;;;;;;;;5052330;28;20537;-69
2023/04/04 07:10:27;;;;;;;3.50;1.97;;;;;;;;;;5052058;28;20458;-70
2023/04/04 07:12:55;;;;;;;6.60;2.17;;;;;;;;;;5050868;28;20454;-70
2023/04/04 07:15:23;;;;;;;7.53;2.47;;;;;;;;;;5053016;28;20465;-69
2023/04/04 07:17:50;;;;;;;3.50;1.73;;;;;;;;;;5053959;28;20458;-70
2023/04/04 07:20:20;;;;;;;7.20;2.33;;;;;;;;;;5054740;28;20545;-70
2023/04/04 07:22:47;;;;;;;10.33;3.00;;;;;;;;;;5052392;28;20960;-70
2023/04/04 07:25:18;;;;;;;4.50;1.80;;;;;;;;;;5052515;28;20493;-71
2023/04/04 07:27:55;;;;;;;3.80;1.60;;;;;;;;;;5052731;28;20573;-69
2023/04/04 07:30:27;;;;;;;2.93;1.80;;;;;;;;;;5043906;28;20982;-70
2023/04/04 07:33:06;;;;;;;5.25;1.90;;;;;;;;;;5053054;28;20461;-69
2023/04/04 07:35:57;;;;;;;10.23;2.60;;;;;;;;;;5044026;28;20211;-70
2023/04/04 07:38:28;;;;;;;5.13;1.93;;;;;;;;;;5050288;28;20979;-69
2023/04/04 07:40:56;;;;;;;4.27;2.30;;;;;;;;;;5052256;28;20549;-70
2023/04/04 07:43:30;;;;;;;3.10;1.77;;;;;;;;;;5051694;28;20458;-69
2023/04/04 07:45:57;;;;;;;4.60;1.57;;;;;;;;;;5051956;28;20489;-69
2023/04/04 07:48:31;;;;;;;2.57;1.47;;;;;;;;;;5052246;28;20758;-69
2023/04/04 07:50:59;;;;;;;4.10;1.40;;;;;;;;;;5052612;28;20481;-70
2023/04/04 07:53:32;;;;;;;5.43;1.13;;;;;;;;;;5043456;28;20463;-71
2023/04/04 07:58:50;;;;;;;4.88;1.63;;;;;;;;;;5033649;28;20450;-70
2023/04/04 08:01:28;;;;;;;3.60;1.40;;;;;;;;;;5033296;28;20544;-70
2023/04/04 08:04:16;;;;;;;3.37;1.67;;;;;;;;;;5048252;28;20523;-70
2023/04/04 08:06:57;;;;;;;5.93;1.70;;;;;;;;;;5054432;28;21136;-70
2023/04/04 08:09:30;;;;;;;2.63;1.50;;;;;;;;;;5053497;28;20515;-69
2023/04/04 08:11:58;;;;;;;7.38;2.90;;;;;;;;;;5041609;28;20530;-70
2023/04/04 08:14:29;;;;;;;4.93;1.63;;;;;;;;;;5051494;28;20305;-69
2023/04/04 08:17:02;;;;;;;2.40;1.33;;;;;;;;;;5048817;28;20540;-69
2023/04/04 08:22:39;;;;;;;2.90;1.27;;;;;;;;;;5050923;28;20466;-70
2023/04/04 08:25:26;;;;;;;5.67;1.70;;;;;;;;;;5050167;28;20462;-69
2023/04/04 08:31:07;;;;;;;7.03;2.73;;;;;;;;;;5047939;28;20442;-70
2023/04/04 08:34:12;;;;;;;3.33;1.40;;;;;;;;;;5049316;28;20466;-70
2023/04/04 08:37:20;;;;;;;3.17;1.60;;;;;;;;;;4999247;28;20462;-70
2023/04/04 08:40:01;;;;;;;3.60;1.37;;;;;;;;;;5046172;28;20442;-71
2023/04/04 08:42:35;;;;;;;4.87;1.53;;;;;;;;;;5041954;28;20464;-70
2023/04/04 08:45:05;;;;;;;4.37;1.43;;;;;;;;;;5051095;28;20438;-72
2023/04/04 08:47:44;;;;;;;4.13;1.60;;;;;;;;;;5052992;28;20501;-70
2023/04/04 08:50:24;;;;;;;2.90;1.43;;;;;;;;;;5047969;28;20450;-71
2023/04/04 08:52:58;;;;;;;3.60;1.10;;;;;;;;;;5052097;28;20838;-69
2023/04/04 08:55:31;;;;;;;3.03;1.23;;;;;;;;;;5046640;28;20862;-70
2023/04/04 08:58:01;;;;;;;6.03;1.90;;;;;;;;;;5039316;28;20454;-70
2023/04/04 09:00:30;;;;;;;3.30;1.10;;;;;;;;;;5033224;28;20461;-69
2023/04/04 09:03:01;;;;;;;7.00;1.53;;;;;;;;;;5045683;28;20538;-68
2023/04/04 09:05:30;;;;;;;3.00;1.10;;;;;;;;;;5048726;28;20485;-69
2023/04/04 09:08:00;;;;;;;6.27;2.00;;;;;;;;;;5046818;28;20582;-68
2023/04/04 09:10:34;;;;;;;3.47;0.90;;;;;;;;;;5039551;28;20871;-70
2023/04/04 09:13:12;;;;;;;3.10;1.00;;;;;;;;;;5064531;28;20453;-69
2023/04/04 09:15:41;;;;;;;5.13;1.47;;;;;;;;;;5044260;28;20534;-69
2023/04/04 09:18:20;;;;;;;3.43;0.90;;;;;;;;;;5043904;28;20557;-70
2023/04/04 09:20:48;;;;;;;4.30;1.20;;;;;;;;;;5051795;28;20450;-68
2023/04/04 09:23:17;;;;;;;6.17;1.60;;;;;;;;;;5042880;28;20509;-69
2023/04/04 09:25:57;;;;;;;4.60;1.60;;;;;;;;;;5040771;28;20523;-69
2023/04/04 09:28:26;;;;;;;4.10;1.10;;;;;;;;;;5048603;28;20517;-68
2023/04/04 09:30:59;;;;;;;3.37;1.17;;;;;;;;;;5036507;28;20458;-69
2023/04/04 09:33:30;;;;;;;4.93;1.40;;;;;;;;;;5044589;28;20853;-69
2023/04/04 09:36:09;;;;;;;3.47;1.10;;;;;;;;;;5048618;28;20568;-70
2023/04/04 09:38:43;;;;;;;3.17;1.17;;;;;;;;;;5048500;28;20803;-70
2023/04/04 09:41:15;;;;;;;6.03;0.90;;;;;;;;;;5049803;28;20817;-69
2023/04/04 09:43:45;;;;;;;4.90;1.50;;;;;;;;;;5032230;28;20510;-69
2023/04/04 09:46:14;;;;;;;3.73;1.30;;;;;;;;;;5043607;28;20453;-69
2023/04/04 09:48:53;;;;;;;3.53;1.13;;;;;;;;;;5047957;28;21010;-69
2023/04/04 09:51:22;;;;;;;4.90;1.30;;;;;;;;;;5048558;28;20469;-68
2023/04/04 09:53:52;;;;;;;4.00;0.90;;;;;;;;;;5049284;28;20592;-68
2023/04/04 09:56:20;;;;;;;4.63;1.47;;;;;;;;;;5050792;28;20465;-69
2023/04/04 09:58:51;;;;;;;5.20;1.27;;;;;;;;;;5051553;28;20565;-70
2023/04/04 10:01:19;;;;;;;4.40;1.30;;;;;;;;;;5052818;28;20458;-68
2023/04/04 10:03:53;;;;;;;3.73;1.20;;;;;;;;;;5042202;28;20450;-70
2023/04/04 10:06:21;;;;;;;6.13;1.30;;;;;;;;;;5032640;28;20508;-69
2023/04/04 10:08:49;;;;;;;3.77;2.00;;;;;;;;;;5028488;28;20870;-69
2023/04/04 10:11:29;;;;;;;4.63;1.13;;;;;;;;;;5028797;28;20458;-69
2023/04/04 10:14:01;;;;;;;4.77;1.47;;;;;;;;;;5029567;28;20454;-70
2023/04/04 10:16:36;;;;;;;3.73;0.80;;;;;;;;;;5029684;28;20623;-70
2023/04/04 10:19:16;;;;;;;5.03;1.77;;;;;;;;;;5047061;28;20457;-70
2023/04/04 10:21:56;;;;;;;4.50;1.20;;;;;;;;;;5048145;28;20734;-70
2023/04/04 10:24:24;;;;;;;3.63;0.90;;;;;;;;;;5026450;28;20498;-69
2023/04/04 10:26:58;;;;;;;4.60;1.10;;;;;;;;;;5030576;28;20478;-71
2023/04/04 10:29:34;;;;;;;4.93;1.20;;;;;;;;;;5031531;28;20462;-70
2023/04/04 10:32:25;;;;;;;3.10;0.90;;;;;;;;;;5033225;28;20543;-70
2023/04/04 10:34:56;;;;;;;3.43;0.80;;;;;;;;;;5030674;28;20534;-70
2023/04/04 10:37:27;;;;;;;2.53;0.77;;;;;;;;;;5032638;28;20498;-70
2023/04/04 10:40:07;;;;;;;5.07;1.20;;;;;;;;;;5030933;28;20493;-69
2023/04/04 10:42:43;;;;;;;15.63;8.67;;;;;;;;;;5035399;28;21069;-69
2023/04/04 10:45:37;;;;;;;2.50;0.70;;;;;;;;;;5032723;28;20477;-70
2023/04/04 10:48:18;;;;;;;3.33;0.80;;;;;;;;;;5033191;28;20729;-69
2023/04/04 10:50:47;;;;;;;2.90;0.83;;;;;;;;;;5034411;28;20748;-69
2023/04/04 10:53:18;;;;;;;2.83;1.00;;;;;;;;;;5032028;28;20487;-70
2023/04/04 10:55:46;;;;;;;2.83;0.83;;;;;;;;;;5016047;28;21090;-70
2023/04/04 10:58:16;;;;;;;6.40;1.00;;;;;;;;;;5011895;28;20482;-69
2023/04/04 11:01:01;;;;;;;5.50;1.00;;;;;;;;;;5014088;28;20460;-71
2023/04/04 11:03:55;;;;;;;2.87;0.90;;;;;;;;;;5032960;28;20867;-69
2023/04/04 11:06:25;;;;;;;2.93;0.80;;;;;;;;;;5034926;28;20527;-70
2023/04/04 11:08:56;;;;;;;3.47;1.20;;;;;;;;;;5033397;28;20479;-70
2023/04/04 11:12:00;;;;;;;3.10;1.00;;;;;;;;;;5032680;28;20454;-70
2023/04/04 11:14:29;;;;;;;3.47;0.70;;;;;;;;;;5032464;28;20478;-70
2023/04/04 11:16:59;;;;;;;3.30;0.97;;;;;;;;;;5030645;28;20544;-70
2023/04/04 11:19:32;;;;;;;2.37;0.70;;;;;;;;;;5030165;28;20576;-70
2023/04/04 11:21:59;;;;;;;5.27;1.00;;;;;;;;;;5031543;28;20546;-70
2023/04/04 11:24:29;;;;;;;4.00;0.90;;;;;;;;;;5030004;28;20483;-70
2023/04/04 11:27:08;;;;;;;3.27;1.30;;;;;;;;;;5015421;28;20471;-69
2023/04/04 11:29:58;;;;;;;4.43;1.13;;;;;;;;;;5027314;28;20535;-69
2023/04/04 11:32:30;;;;;;;4.07;1.10;;;;;;;;;;5028260;28;20462;-70
2023/04/04 11:34:59;;;;;;;4.70;0.77;;;;;;;;;;5019985;28;20486;-70
2023/04/04 11:37:27;;;;;;;2.80;0.90;;;;;;;;;;5029233;28;20839;-70
2023/04/04 11:39:59;;;;;;;2.93;1.00;;;;;;;;;;5018187;28;20456;-71
2023/04/04 11:42:38;;;;;;;3.90;1.37;;;;;;;;;;5012972;28;20483;-70
2023/04/04 11:45:12;;;;;;;3.03;0.80;;;;;;;;;;5017179;28;20953;-71
2023/04/04 11:47:59;;;;;;;2.93;1.10;;;;;;;;;;5021924;28;20581;-71
2023/04/04 11:50:37;;;;;;;4.10;0.80;;;;;;;;;;5010404;28;21120;-70
2023/04/04 11:53:09;;;;;;;3.90;0.90;;;;;;;;;;5013966;28;20450;-70
2023/04/04 11:56:13;;;;;;;;;;;;;;;;;;;;;
2023/04/04 11:58:53;;;;;;;2.40;0.80;;;;;;;;;;5018158;28;20462;-71
2023/04/04 12:01:24;;;;;;;2.90;0.90;;;;;;;;;;5011238;28;20528;-70
2023/04/04 12:03:55;;;;;;;3.97;1.30;;;;;;;;;;5010949;28;20459;-70
2023/04/04 12:09:16;;;;;;;3.80;1.00;;;;;;;;;;5026166;28;20482;-70
2023/04/04 12:11:52;;;;;;;2.50;0.83;;;;;;;;;;5026170;28;20569;-70
2023/04/04 12:14:26;;;;;;;3.60;1.40;;;;;;;;;;5023006;28;20467;-70
2023/04/04 12:16:58;;;;;;;4.87;1.00;;;;;;;;;;5010554;28;20451;-70
2023/04/04 12:19:26;;;;;;;3.40;0.80;;;;;;;;;;5022339;28;20950;-71
2023/04/04 12:21:58;;;;;;;4.83;1.20;;;;;;;;;;5018274;28;20502;-72
2023/04/04 12:24:32;;;;;;;7.70;1.37;;;;;;;;;;5046718;28;20580;-71
2023/04/04 12:27:02;;;;;;;3.90;1.30;;;;;;;;;;5049900;28;20476;-71
2023/04/04 12:29:34;;;;;;;3.20;1.27;;;;;;;;;;5049591;28;20485;-71
2023/04/04 12:32:03;;;;;;;3.00;0.80;;;;;;;;;;5046724;28;20612;-71
2023/04/04 12:34:32;;;;;;;14.23;6.20;;;;;;;;;;5047519;28;20450;-71
2023/04/04 12:37:08;;;;;;;3.90;0.80;;;;;;;;;;5045603;28;20458;-72
2023/04/04 12:39:42;;;;;;;7.83;1.20;;;;;;;;;;5043507;28;20497;-71
2023/04/04 12:42:22;;;;;;;4.80;1.27;;;;;;;;;;5046438;28;20658;-70
2023/04/04 12:44:53;;;;;;;5.67;1.30;;;;;;;;;;5028622;28;20478;-71
2023/04/04 12:47:22;;;;;;;5.35;1.20;;;;;;;;;;5026428;28;20948;-70
2023/04/04 12:49:50;;;;;;;4.30;0.80;;;;;;;;;;5028479;28;20388;-70
2023/04/04 12:52:25;;;;;;;3.83;0.97;;;;;;;;;;5048523;28;20454;-70
2023/04/04 12:54:55;;;;;;;2.80;0.77;;;;;;;;;;5049855;28;20456;-71
2023/04/04 12:57:28;;;;;;;3.07;0.93;;;;;;;;;;5048196;28;20981;-70
2023/04/04 12:59:56;;;;;;;2.40;0.60;;;;;;;;;;5035971;28;20483;-71
2023/04/04 13:02:28;;;;;;;3.83;1.10;;;;;;;;;;5029423;28;20481;-70
2023/04/04 13:04:56;;;;;;;2.77;0.63;;;;;;;;;;5028982;28;20466;-71
2023/04/04 13:07:26;;;;;;;3.57;1.10;;;;;;;;;;5039773;28;20477;-72
2023/04/04 13:10:04;;;;;;;3.00;0.83;;;;;;;;;;5040391;28;20502;-71
2023/04/04 13:12:50;;;;;;;4.73;0.97;;;;;;;;;;5031489;28;20568;-71
2023/04/04 13:15:18;;;;;;;4.40;1.03;;;;;;;;;;5036556;28;20463;-71
2023/04/04 13:17:49;;;;;;;2.93;1.00;;;;;;;;;;5041483;28;20949;-70
2023/04/04 13:20:19;;;;;;;4.67;0.90;;;;;;;;;;5043958;28;20461;-71
2023/04/04 13:22:48;;;;;;;3.50;0.80;;;;;;;;;;5039318;28;20490;-71
2023/04/04 13:25:20;;;;;;;5.43;3.07;;;;;;;;;;5041840;28;20462;-70
2023/04/04 13:27:49;;;;;;;4.90;1.40;;;;;;;;;;5044588;28;20478;-71
2023/04/04 13:30:17;;;;;;;27.77;15.47;;;;;;;;;;5050816;28;20462;-70
2023/04/04 13:32:45;;;;;;;3.97;1.57;;;;;;;;;;5045080;28;20457;-70
2023/04/04 13:35:15;;;;;;;2.90;0.80;;;;;;;;;;5026074;28;20459;-70
2023/04/04 13:37:45;;;;;;;4.13;1.20;;;;;;;;;;5040038;28;20462;-70
2023/04/04 13:40:39;;;;;;;4.63;1.20;;;;;;;;;;5043855;28;20511;-71
2023/04/04 13:43:10;;;;;;;6.33;1.90;;;;;;;;;;5047494;28;20623;-70
2023/04/04 13:45:42;;;;;;;5.47;1.40;;;;;;;;;;5045710;28;21133;-71
2023/04/04 13:48:13;;;;;;;3.00;1.00;;;;;;;;;;5042257;28;20482;-70
2023/04/04 13:50:54;;;;;;;3.53;0.80;;;;;;;;;;5047083;28;20462;-70
2023/04/04 13:53:23;;;;;;;3.30;0.90;;;;;;;;;;5046609;28;20480;-70
2023/04/04 13:56:02;;;;;;;8.37;2.40;;;;;;;;;;5045986;28;20530;-71
2023/04/04 13:58:41;;;;;;;2.50;0.80;;;;;;;;;;5042441;28;20466;-70
2023/04/04 14:01:15;;;;;;;5.17;1.30;;;;;;;;;;5053017;28;20457;-70
2023/04/04 14:03:46;;;;;;;3.27;1.10;;;;;;;;;;5044774;28;20460;-71
2023/04/04 14:06:15;;;;;;;3.77;0.80;;;;;;;;;;5043016;28;20863;-70
2023/04/04 14:08:43;;;;;;;6.07;1.43;;;;;;;;;;5042317;28;20583;-70
2023/04/04 14:11:18;;;;;;;4.77;1.90;;;;;;;;;;5040932;28;20490;-70
2023/04/04 14:13:46;;;;;;;3.43;1.00;;;;;;;;;;5032954;28;20549;-70
2023/04/04 14:16:22;;;;;;;4.13;1.37;;;;;;;;;;5031013;28;20747;-70
2023/04/04 14:18:56;;;;;;;3.60;0.87;;;;;;;;;;5029852;28;20481;-71
2023/04/04 14:21:25;;;;;;;3.10;1.10;;;;;;;;;;5043676;28;20493;-71
2023/04/04 14:23:57;;;;;;;3.20;1.00;;;;;;;;;;5049273;28;20477;-70
2023/04/04 14:26:53;;;;;;;3.43;1.17;;;;;;;;;;5049374;28;20814;-71
2023/04/04 14:29:22;;;;;;;4.10;1.90;;;;;;;;;;5049908;28;20636;-70
2023/04/04 14:31:55;;;;;;;6.20;0.90;;;;;;;;;;5050163;28;20474;-70
2023/04/04 14:34:25;;;;;;;3.20;1.20;;;;;;;;;;5047084;28;20784;-69
2023/04/04 14:42:44;;;;;;;4.30;0.90;;;;;;;;;;5044162;28;20450;-69
2023/04/04 14:45:15;;;;;;;4.47;0.97;;;;;;;;;;5031902;28;20464;-69
2023/04/04 14:47:49;;;;;;;3.97;1.77;;;;;;;;;;5033960;28;20597;-71
2023/04/04 14:50:17;;;;;;;3.27;0.97;;;;;;;;;;5052663;28;20453;-69
2023/04/04 14:52:51;;;;;;;3.00;1.20;;;;;;;;;;5046463;28;20462;-69
2023/04/04 14:55:23;;;;;;;3.20;1.17;;;;;;;;;;5044311;28;20764;-70
2023/04/04 14:57:51;;;;;;;2.77;0.90;;;;;;;;;;5044569;28;20774;-70
2023/04/04 15:00:52;;;;;;;4.23;1.00;;;;;;;;;;5045317;28;20467;-69
2023/04/04 15:03:52;;;;;;;4.47;1.00;;;;;;;;;;5042692;28;20468;-70
2023/04/04 15:09:25;;;;;;;;;;;;;;;;;;;;;
2023/04/04 15:15:27;;;;;;;7.33;1.67;;;;;;;;;;5048270;28;20475;-69
2023/04/04 15:17:55;;;;;;;3.23;1.20;;;;;;;;;;5047764;28;20599;-70
2023/04/04 15:20:52;;;;;;;4.80;1.53;;;;;;;;;;5042416;28;20489;-70
2023/04/04 15:23:35;;;;;;;3.90;1.30;;;;;;;;;;5004041;28;20457;-71
2023/04/04 15:26:17;;;;;;;5.50;2.43;;;;;;;;;;5048230;28;20457;-70
2023/04/04 15:28:57;;;;;;;4.07;1.43;;;;;;;;;;5031694;28;20594;-70
2023/04/04 15:31:30;;;;;;;4.67;1.60;;;;;;;;;;5041613;28;20556;-71
2023/04/04 15:34:04;;;;;;;4.63;1.37;;;;;;;;;;5028734;28;20458;-71
2023/04/04 15:40:32;;;;;;;6.60;1.90;;;;;;;;;;5042480;28;20601;-70
2023/04/04 15:43:02;;;;;;;4.30;1.47;;;;;;;;;;5049454;28;20461;-71
2023/04/04 15:45:37;;;;;;;5.00;1.60;;;;;;;;;;5039247;28;21226;-70
2023/04/04 15:48:12;;;;;;;3.17;1.20;;;;;;;;;;5047721;28;20466;-71